Time;durP1;ratioP1;P1;durP2;ratioP2;P2;SDS_P1;SDS_P2;PMS_P1;PMS_P2;Temp;Humidity;BMP_temperature;BMP_pressure;BME280_temperature;BME280_humidity;BME280_pressure;Samples;Min_cycle;Max_cycle;Signal;HPM_P1;HPM_P2
2021/09/15 00:00:06;;;;;;;14.13;11.35;;;;;;;19.76;100.00;100133.00;4995563;28;20472;-67
2021/09/15 00:02:50;;;;;;;14.77;11.95;;;;;;;19.76;100.00;100138.41;4995695;28;20551;-67
2021/09/15 00:05:34;;;;;;;15.32;11.32;;;;;;;19.76;100.00;100133.00;4996226;28;20096;-67
2021/09/15 00:08:18;;;;;;;12.90;11.00;;;;;;;19.77;100.00;100140.94;4996285;28;20104;-66
2021/09/15 00:11:02;;;;;;;14.65;10.98;;;;;;;19.78;100.00;100125.53;4996267;28;20511;-67
2021/09/15 00:13:46;;;;;;;12.07;10.32;;;;;;;19.80;100.00;100120.75;4995294;28;20049;-66
2021/09/15 00:16:30;;;;;;;10.82;9.77;;;;;;;19.79;100.00;100121.78;4994937;28;20049;-67
2021/09/15 00:19:14;;;;;;;12.20;10.23;;;;;;;19.76;100.00;100112.22;4994939;28;20416;-67
2021/09/15 00:21:58;;;;;;;11.95;10.75;;;;;;;19.75;100.00;100115.13;4994916;28;20129;-67
2021/09/15 00:24:42;;;;;;;12.88;11.40;;;;;;;19.71;100.00;100119.28;4996068;28;20069;-67
2021/09/15 00:27:26;;;;;;;11.95;10.45;;;;;;;19.70;100.00;100123.03;4995132;28;20048;-67
2021/09/15 00:30:10;;;;;;;11.70;10.50;;;;;;;19.63;100.00;100120.31;4994490;28;20050;-66
2021/09/15 00:32:54;;;;;;;13.75;11.20;;;;;;;19.62;100.00;100120.50;4994968;28;20516;-67
2021/09/15 00:35:38;;;;;;;11.52;10.40;;;;;;;19.61;100.00;100124.25;4981123;28;20562;-67
2021/09/15 00:38:22;;;;;;;12.23;10.70;;;;;;;19.57;100.00;100114.88;4995812;28;20515;-66
2021/09/15 00:41:06;;;;;;;12.70;10.65;;;;;;;19.59;100.00;100105.53;4994407;28;20409;-67
2021/09/15 00:44:07;;;;;;;12.02;10.50;;;;;;;19.59;100.00;100105.53;4995744;28;20101;-67
2021/09/15 00:46:51;;;;;;;11.90;10.50;;;;;;;19.61;100.00;100097.22;4994831;28;20101;-66
2021/09/15 00:49:35;;;;;;;11.57;10.52;;;;;;;19.63;100.00;100093.28;4995596;28;20048;-67
2021/09/15 00:52:19;;;;;;;10.63;9.55;;;;;;;19.63;100.00;100090.56;4980747;28;20176;-67
2021/09/15 00:55:03;;;;;;;11.00;9.13;;;;;;;19.65;100.00;100082.22;4994523;28;20061;-67
2021/09/15 00:57:48;;;;;;;11.30;10.20;;;;;;;19.67;100.00;100090.97;4995420;28;20096;-66
2021/09/15 01:00:31;;;;;;;13.25;11.75;;;;;;;19.68;100.00;100081.84;4994069;28;20472;-67
2021/09/15 01:03:15;;;;;;;13.13;11.70;;;;;;;19.69;100.00;100092.44;4994338;28;20049;-67
2021/09/15 01:05:59;;;;;;;12.07;10.85;;;;;;;19.71;100.00;100092.25;4994053;28;20054;-66
2021/09/15 01:08:43;;;;;;;11.77;10.68;;;;;;;19.68;100.00;100103.47;4994891;28;20429;-67
2021/09/15 01:11:28;;;;;;;15.73;10.27;;;;;;;19.85;100.00;100107.41;4980600;28;20069;-67
2021/09/15 01:14:12;;;;;;;12.05;10.75;;;;;;;19.91;100.00;100109.31;4994154;28;20572;-66
2021/09/15 01:16:59;;;;;;;11.85;10.32;;;;;;;19.96;100.00;100113.06;4993986;28;20108;-67
2021/09/15 01:19:43;;;;;;;14.95;10.43;;;;;;;19.95;100.00;100111.41;4993796;28;20088;-67
2021/09/15 01:22:28;;;;;;;14.43;11.15;;;;;;;20.00;100.00;100108.06;4993510;28;20431;-67
2021/09/15 01:25:12;;;;;;;12.02;10.73;;;;;;;20.07;100.00;100108.91;4993922;28;20060;-67
2021/09/15 01:27:56;;;;;;;14.48;10.95;;;;;;;20.08;100.00;100107.88;4993700;28;20409;-67
2021/09/15 01:30:41;;;;;;;12.68;10.75;;;;;;;20.14;100.00;100117.88;4994547;28;20053;-67
2021/09/15 01:33:26;;;;;;;14.68;10.85;;;;;;;20.16;100.00;100113.06;4993275;28;20069;-67
2021/09/15 01:36:10;;;;;;;16.98;10.70;;;;;;;20.18;100.00;100100.16;4993486;28;20052;-67
2021/09/15 01:38:54;;;;;;;14.02;10.32;;;;;;;20.23;100.00;100103.09;4994702;28;20053;-66
2021/09/15 01:41:38;;;;;;;10.45;9.35;;;;;;;20.23;100.00;100092.25;4994294;28;20475;-67
2021/09/15 01:44:30;;;;;;;12.48;10.07;;;;;;;20.29;100.00;100096.81;4994637;28;20499;-67
2021/09/15 01:47:16;;;;;;;14.70;9.77;;;;;;;20.37;100.00;100093.88;4993224;28;20045;-67
2021/09/15 01:50:01;;;;;;;11.13;9.15;;;;;;;20.35;100.00;100087.84;4994671;28;20099;-66
2021/09/15 01:52:44;;;;;;;14.38;9.63;;;;;;;20.31;100.00;100089.34;4993204;28;20064;-66
2021/09/15 01:55:29;;;;;;;14.60;10.40;;;;;;;20.21;100.00;100078.09;5047945;23;20056;-71
2021/09/15 01:58:13;;;;;;;13.75;11.85;;;;;;;20.14;100.00;100066.44;5032664;28;20096;-71
2021/09/15 02:00:57;;;;;;;13.38;10.45;;;;;;;20.10;100.00;100059.81;5033694;28;20095;-69
2021/09/15 02:03:41;;;;;;;15.23;12.45;;;;;;;20.06;100.00;100069.38;5032430;28;20052;-71
2021/09/15 02:06:25;;;;;;;16.42;12.88;;;;;;;20.04;100.00;100060.63;5031129;28;20135;-71
2021/09/15 02:09:09;;;;;;;14.05;12.38;;;;;;;20.01;100.00;100058.31;5053468;28;20051;-71
2021/09/15 02:11:53;;;;;;;21.02;12.07;;;;;;;19.99;100.00;100063.13;5038322;28;20414;-71
2021/09/15 02:14:37;;;;;;;;;;;;;;;19.96;100.00;100063.50;5038651;28;20059;-69
2021/09/15 02:17:21;;;;;;;15.95;12.68;;;;;;;19.91;100.00;100060.63;5038337;28;19920;-71
2021/09/15 02:20:07;;;;;;;12.10;10.80;;;;;;;19.84;100.00;100059.78;5024285;28;20142;-70
2021/09/15 02:22:51;;;;;;;14.60;11.40;;;;;;;19.80;100.00;100048.53;5053310;28;20047;-71
2021/09/15 02:25:34;;;;;;;12.13;10.43;;;;;;;19.76;100.00;100036.47;5038159;28;20087;-71
2021/09/15 02:28:18;;;;;;;16.60;12.40;;;;;;;19.74;100.00;100048.53;5051873;28;20127;-70
2021/09/15 02:31:02;;;;;;;15.23;11.77;;;;;;;19.73;100.00;100052.28;5023983;28;20052;-71
2021/09/15 02:33:46;;;;;;;14.05;11.50;;;;;;;19.73;100.00;100055.00;5038147;28;20059;-71
2021/09/15 02:36:30;;;;;;;12.82;11.52;;;;;;;19.68;100.00;100054.78;5038014;28;20133;-70
2021/09/15 02:39:14;;;;;;;14.00;11.40;;;;;;;19.65;100.00;100049.78;5053060;28;20415;-71
2021/09/15 02:41:58;;;;;;;14.93;11.73;;;;;;;19.62;100.00;100045.59;5038000;28;20568;-72
2021/09/15 02:44:42;;;;;;;14.35;11.80;;;;;;;19.61;100.00;100048.53;5053418;28;20055;-71
2021/09/15 02:47:25;;;;;;;13.75;11.15;;;;;;;19.59;100.00;100045.22;5041852;28;20059;-71
2021/09/15 02:50:10;;;;;;;16.40;13.60;;;;;;;19.58;100.00;100051.66;5041729;28;20513;-71
2021/09/15 02:52:54;;;;;;;14.40;11.70;;;;;;;19.57;100.00;100050.81;5041702;28;20052;-72
2021/09/15 02:55:38;;;;;;;13.75;11.50;;;;;;;19.57;100.00;100053.53;5057074;28;20131;-71
2021/09/15 02:58:22;;;;;;;12.52;11.15;;;;;;;19.58;100.00;100054.38;5041601;28;20116;-71
2021/09/15 03:01:05;;;;;;;13.48;11.48;;;;;;;19.56;100.00;100061.84;5027580;28;20071;-71
2021/09/15 03:03:49;;;;;;;;;;;;;;;19.55;100.00;100065.56;5057038;28;20127;-72
2021/09/15 03:06:33;;;;;;;16.20;13.13;;;;;;;19.55;100.00;100065.56;5041588;28;19920;-71
2021/09/15 03:09:17;;;;;;;13.40;12.07;;;;;;;19.56;100.00;100059.13;5041648;28;20127;-71
2021/09/15 03:12:01;;;;;;;14.07;11.63;;;;;;;19.55;100.00;100060.16;5041606;28;20056;-71
2021/09/15 03:14:45;;;;;;;12.38;11.02;;;;;;;19.54;100.00;100053.09;5056396;28;20052;-71
2021/09/15 03:17:29;;;;;;;14.75;12.63;;;;;;;19.55;100.00;100060.16;5041494;28;20090;-71
2021/09/15 03:20:13;;;;;;;;;;;;;;;19.53;100.00;100056.84;5056687;28;20047;-71
2021/09/15 03:22:57;;;;;;;14.85;11.43;;;;;;;19.51;100.00;100053.53;5027131;28;19955;-71
2021/09/15 03:25:40;;;;;;;13.65;10.93;;;;;;;19.50;100.00;100057.28;5041251;28;20124;-71
2021/09/15 03:28:24;;;;;;;16.75;12.25;;;;;;;19.47;100.00;100058.50;5041224;28;20048;-71
2021/09/15 03:31:08;;;;;;;13.70;11.85;;;;;;;19.46;100.00;100064.94;5040992;28;20047;-71
2021/09/15 03:33:52;;;;;;;16.92;11.13;;;;;;;19.44;100.00;100064.34;5040954;28;20620;-71
2021/09/15 03:36:37;;;;;;;17.30;13.23;;;;;;;19.42;100.00;100057.47;5027413;28;20167;-71
2021/09/15 03:39:20;;;;;;;14.57;13.02;;;;;;;19.41;100.00;100063.91;5041349;28;20056;-71
2021/09/15 03:42:05;;;;;;;13.18;11.88;;;;;;;19.43;100.00;100062.66;5041145;28;20098;-71
2021/09/15 03:44:49;;;;;;;21.42;12.57;;;;;;;19.46;100.00;100062.25;5041017;28;20123;-71
2021/09/15 03:47:33;;;;;;;15.85;11.63;;;;;;;19.46;100.00;100061.41;5055726;28;20067;-71
2021/09/15 03:50:17;;;;;;;16.20;12.82;;;;;;;19.47;100.00;100054.94;5041277;28;20099;-71
2021/09/15 03:53:01;;;;;;;16.00;11.73;;;;;;;19.48;100.00;100065.56;5040835;28;20442;-71
2021/09/15 03:55:45;;;;;;;17.67;13.70;;;;;;;19.43;100.00;100061.81;5055682;28;20051;-71
2021/09/15 03:58:29;;;;;;;17.33;12.65;;;;;;;19.41;100.00;100058.50;5026720;28;20079;-71
2021/09/15 04:01:14;;;;;;;18.40;13.52;;;;;;;19.42;100.00;100068.28;5040744;28;20498;-69
2021/09/15 04:03:58;;;;;;;18.17;13.43;;;;;;;19.49;100.00;100066.41;5040768;28;20079;-70
2021/09/15 04:06:42;;;;;;;17.30;14.27;;;;;;;19.48;100.00;100059.34;5055343;28;20048;-70
2021/09/15 04:09:26;;;;;;;19.67;14.65;;;;;;;19.50;100.00;100049.97;5040580;28;20153;-70
2021/09/15 04:12:10;;;;;;;17.05;13.43;;;;;;;19.46;100.00;100040.63;5040491;28;20078;-71
2021/09/15 04:14:54;;;;;;;16.02;13.98;;;;;;;19.42;100.00;100033.97;5055363;28;20056;-70
2021/09/15 04:17:37;;;;;;;15.13;13.55;;;;;;;19.42;100.00;100043.94;5040351;28;20084;-70
2021/09/15 04:20:22;;;;;;;24.95;15.32;;;;;;;19.41;100.00;100048.50;5040368;28;20095;-70
2021/09/15 04:23:13;;;;;;;17.80;14.57;;;;;;;19.40;100.00;100051.44;5026323;28;20068;-70
2021/09/15 04:32:03;;;;;;;21.40;16.10;;;;;;;19.36;100.00;100079.91;5055009;28;20118;-70
2021/09/15 04:34:47;;;;;;;23.60;14.55;;;;;;;19.33;100.00;100088.41;5040143;28;20415;-69
2021/09/15 04:37:31;;;;;;;21.42;14.90;;;;;;;19.27;100.00;100092.78;5026031;28;20509;-70
2021/09/15 04:40:15;;;;;;;17.83;14.55;;;;;;;19.26;100.00;100095.66;5025872;28;20048;-69
2021/09/15 04:42:59;;;;;;;18.95;14.93;;;;;;;19.26;100.00;100092.97;5055011;28;20044;-70
2021/09/15 04:45:42;;;;;;;18.80;14.98;;;;;;;19.22;100.00;100097.13;5025759;28;20048;-69
2021/09/15 04:48:26;;;;;;;18.20;15.48;;;;;;;19.18;100.00;100088.59;5025422;28;20103;-70
2021/09/15 04:51:11;;;;;;;23.98;18.50;;;;;;;19.18;100.00;100075.06;5039738;28;20056;-69
2021/09/15 04:53:55;;;;;;;25.23;17.58;;;;;;;19.19;100.00;100092.13;5026024;28;20094;-67
2021/09/15 04:56:39;;;;;;;23.17;19.00;;;;;;;19.11;100.00;100084.16;5054503;28;20056;-67
2021/09/15 04:59:23;;;;;;;30.48;20.45;;;;;;;19.09;100.00;100068.16;5025623;28;20047;-67
2021/09/15 05:02:07;;;;;;;33.17;20.60;;;;;;;19.12;100.00;100080.44;5054581;28;20517;-67
2021/09/15 05:04:50;;;;;;;39.10;20.92;;;;;;;19.11;100.00;100089.56;5054603;28;20051;-68
2021/09/15 05:07:34;;;;;;;30.27;18.52;;;;;;;19.04;100.00;100078.75;5039112;28;20090;-68
2021/09/15 05:10:24;;;;;;;30.30;19.15;;;;;;;19.04;100.00;100072.50;5039137;28;20518;-68
2021/09/15 05:13:08;;;;;;;32.85;19.45;;;;;;;18.98;100.00;100081.44;5039968;28;20525;-68
2021/09/15 05:15:51;;;;;;;36.60;20.52;;;;;;;18.99;100.00;100085.81;5054594;28;20044;-68
2021/09/15 05:18:35;;;;;;;26.65;17.55;;;;;;;19.00;100.00;100088.28;5039510;28;20055;-68
2021/09/15 05:21:19;;;;;;;31.33;22.40;;;;;;;19.05;100.00;100084.97;5054049;28;20095;-68
2021/09/15 05:24:03;;;;;;;22.23;18.35;;;;;;;19.05;100.00;100087.66;5039146;28;20070;-68
2021/09/15 05:26:47;;;;;;;23.83;18.33;;;;;;;19.05;100.00;100087.66;5053700;28;20048;-68
2021/09/15 05:29:31;;;;;;;28.60;19.92;;;;;;;19.04;100.00;100089.56;5038901;28;20453;-68
2021/09/15 05:32:15;;;;;;;35.55;21.60;;;;;;;19.07;100.00;100088.31;5038896;28;20517;-68
2021/09/15 05:34:59;;;;;;;29.83;19.40;;;;;;;19.09;100.00;100099.75;5053873;28;20079;-68
2021/09/15 05:37:45;;;;;;;27.70;19.45;;;;;;;19.11;100.00;100101.22;5039025;28;20078;-68
2021/09/15 05:40:28;;;;;;;29.55;19.80;;;;;;;19.14;100.00;100094.56;5038938;28;20131;-68
2021/09/15 05:43:12;;;;;;;32.70;17.10;;;;;;;19.10;100.00;100096.03;5038701;28;20178;-68
2021/09/15 05:45:56;;;;;;;21.05;16.30;;;;;;;19.11;100.00;100098.53;5053393;28;20047;-68
2021/09/15 05:48:40;;;;;;;20.85;13.80;;;;;;;19.16;100.00;100106.84;5053639;28;20052;-68
2021/09/15 05:51:24;;;;;;;15.23;12.15;;;;;;;19.11;100.00;100113.91;5054007;28;20099;-68
2021/09/15 05:54:09;;;;;;;;;;;;;;;19.09;100.00;100108.69;5054025;28;20469;-65
2021/09/15 05:56:53;;;;;;;;;;;;;;;19.06;100.00;100102.84;5048980;28;19994;-68
2021/09/15 05:59:37;;;;;;;17.70;13.07;;;;;;;19.11;100.00;100103.09;5053646;28;20429;-68
2021/09/15 06:02:21;;;;;;;18.48;13.55;;;;;;;19.11;100.00;100111.19;5052551;28;20074;-68
2021/09/15 06:05:05;;;;;;;15.65;11.68;;;;;;;19.15;100.00;100118.69;5053197;28;20083;-68
2021/09/15 06:07:49;;;;;;;18.30;12.13;;;;;;;19.11;100.00;100113.91;5053114;28;20076;-67
2021/09/15 06:10:33;;;;;;;20.23;11.27;;;;;;;19.14;100.00;100105.38;5052392;28;20465;-68
2021/09/15 06:13:17;;;;;;;16.40;11.65;;;;;;;19.09;100.00;100114.09;5052463;28;20130;-67
2021/09/15 06:16:01;;;;;;;15.98;11.98;;;;;;;19.14;100.00;100110.78;5052011;28;20044;-67
2021/09/15 06:18:45;;;;;;;18.38;12.23;;;;;;;19.15;100.00;100104.34;5037921;28;20039;-67
2021/09/15 06:21:29;;;;;;;15.63;12.65;;;;;;;19.13;100.00;100103.72;5037861;28;20079;-68
2021/09/15 06:24:14;;;;;;;15.18;12.02;;;;;;;19.18;100.00;100104.81;5052066;28;20051;-67
2021/09/15 06:26:58;;;;;;;16.10;12.02;;;;;;;19.18;100.00;100107.50;5052849;28;20148;-68
2021/09/15 06:29:41;;;;;;;21.25;11.95;;;;;;;19.21;100.00;100100.88;5053327;28;20055;-68
2021/09/15 06:32:25;;;;;;;17.88;11.82;;;;;;;19.28;100.00;100096.31;5051945;28;20056;-68
2021/09/15 06:35:13;;;;;;;18.05;11.60;;;;;;;19.34;100.00;100095.50;5052117;28;20079;-68
2021/09/15 06:37:57;;;;;;;17.00;11.85;;;;;;;19.37;100.00;100095.91;5051851;28;20052;-68
2021/09/15 06:40:41;;;;;;;18.35;12.25;;;;;;;19.39;100.00;100098.44;5052139;28;20091;-68
2021/09/15 06:43:26;;;;;;;17.05;12.88;;;;;;;19.48;100.00;100097.19;5052190;28;20107;-68
2021/09/15 06:46:10;;;;;;;16.02;13.02;;;;;;;19.51;100.00;100097.59;5051888;28;20120;-68
2021/09/15 06:48:53;;;;;;;20.50;11.10;;;;;;;19.52;100.00;100093.03;5052022;28;20204;-67
2021/09/15 06:51:37;;;;;;;;;;;;;;;19.51;100.00;100094.91;5053492;28;20044;-69
2021/09/15 06:54:21;;;;;;;18.50;12.17;;;;;;;19.61;100.00;100089.09;5052768;28;20306;-69
2021/09/15 06:57:05;;;;;;;14.00;9.80;;;;;;;19.59;100.00;100093.88;5051827;28;20047;-69
2021/09/15 06:59:49;;;;;;;15.85;10.93;;;;;;;19.62;100.00;100091.59;5051643;28;20052;-69
2021/09/15 07:02:33;;;;;;;;;;;;;;;19.64;100.00;100096.78;5038027;28;20103;-69
2021/09/15 07:05:17;;;;;;;18.02;12.05;;;;;;;19.64;100.00;100097.66;5051817;28;19920;-69
2021/09/15 07:08:01;;;;;;;12.95;10.48;;;;;;;19.64;100.00;100102.19;5052839;28;20052;-69
2021/09/15 07:10:45;;;;;;;14.38;11.40;;;;;;;19.64;100.00;100111.16;5052627;28;20052;-68
2021/09/15 07:13:29;;;;;;;16.13;11.63;;;;;;;19.63;100.00;100095.13;5037694;28;20047;-69
2021/09/15 07:16:13;;;;;;;16.77;13.00;;;;;;;19.66;100.00;100100.97;5052463;28;20465;-68
2021/09/15 07:18:58;;;;;;;;;;;;;;;19.71;100.00;100109.28;5052175;28;20463;-67
2021/09/15 07:21:42;;;;;;;13.05;10.27;;;;;;;19.73;100.00;100103.69;5051793;28;19935;-68
2021/09/15 07:24:26;;;;;;;;;;;;;;;19.72;100.00;100105.53;5051913;28;20137;-68
2021/09/15 07:27:10;;;;;;;20.03;12.80;;;;;;;19.73;100.00;100106.38;5051364;28;19991;-68
2021/09/15 07:29:54;;;;;;;22.15;12.82;;;;;;;19.79;100.00;100110.97;5051729;28;20301;-68
2021/09/15 07:32:38;;;;;;;18.33;12.93;;;;;;;19.88;100.00;100120.53;5054928;28;20422;-69
2021/09/15 07:35:22;;;;;;;14.98;12.50;;;;;;;19.89;100.00;100116.81;5041164;28;20071;-68
2021/09/15 07:38:06;;;;;;;19.13;12.30;;;;;;;19.85;100.00;100121.78;5055250;28;20099;-68
2021/09/15 07:40:50;;;;;;;17.83;12.38;;;;;;;19.88;100.00;100128.63;5055099;28;20052;-69
2021/09/15 07:43:34;;;;;;;16.38;13.05;;;;;;;19.83;100.00;100121.19;5056210;28;20043;-69
2021/09/15 07:46:22;;;;;;;13.80;12.05;;;;;;;19.89;100.00;100130.34;5056029;28;20055;-69
2021/09/15 07:49:06;;;;;;;20.17;14.32;;;;;;;19.88;100.00;100134.06;5054960;28;20064;-69
2021/09/15 07:51:50;;;;;;;16.73;12.82;;;;;;;19.90;100.00;100134.69;5054965;28;20143;-68
2021/09/15 07:54:33;;;;;;;18.15;14.27;;;;;;;19.89;100.00;100141.97;5055053;28;20056;-69
2021/09/15 07:57:17;;;;;;;22.75;14.88;;;;;;;19.89;100.00;100135.75;5056100;28;20044;-68
2021/09/15 08:00:02;;;;;;;20.48;15.88;;;;;;;19.87;100.00;100137.81;5040725;28;20173;-69
2021/09/15 08:02:47;;;;;;;25.73;15.65;;;;;;;19.85;100.00;100131.78;5055083;28;20140;-68
2021/09/15 08:05:31;;;;;;;25.27;16.98;;;;;;;19.87;100.00;100140.50;5054676;28;20102;-68
2021/09/15 08:08:15;;;;;;;;;;;;;;;19.83;100.00;100134.69;5056062;28;20406;-68
2021/09/15 08:11:00;;;;;;;20.67;15.17;;;;;;;19.79;100.00;100148.84;5055444;28;20357;-68
2021/09/15 08:13:44;;;;;;;22.52;15.80;;;;;;;19.83;100.00;100133.84;5055868;28;20411;-67
2021/09/15 08:16:28;;;;;;;18.10;14.73;;;;;;;19.86;100.00;100139.69;5054458;28;20052;-68
2021/09/15 08:19:11;;;;;;;22.02;15.05;;;;;;;19.86;100.00;100136.13;5054481;28;20403;-67
2021/09/15 08:21:55;;;;;;;20.02;13.55;;;;;;;19.90;100.00;100140.94;5054446;28;20067;-68
2021/09/15 08:24:42;;;;;;;16.55;13.25;;;;;;;19.84;100.00;100136.38;5054633;28;20047;-68
2021/09/15 08:27:26;;;;;;;17.25;12.23;;;;;;;19.79;100.00;100143.44;5053992;28;20091;-68
2021/09/15 08:30:11;;;;;;;15.07;11.50;;;;;;;19.70;100.00;100150.06;5054945;28;20072;-67
2021/09/15 08:32:55;;;;;;;11.25;9.38;;;;;;;19.63;100.00;100166.28;5054512;28;20537;-67
2021/09/15 08:35:38;;;;;;;16.98;11.25;;;;;;;19.62;100.00;100161.06;5054833;28;20518;-68
2021/09/15 08:38:22;;;;;;;10.25;7.22;;;;;;;19.60;100.00;100165.88;5054875;28;20047;-67
2021/09/15 08:41:06;;;;;;;10.55;7.70;;;;;;;19.61;100.00;100168.34;5054088;28;20060;-68
2021/09/15 08:43:51;;;;;;;9.88;8.30;;;;;;;19.61;100.00;100162.13;5052775;28;20114;-67
2021/09/15 08:46:36;;;;;;;9.95;7.47;;;;;;;19.60;100.00;100166.69;5053768;28;20051;-68
2021/09/15 08:49:20;;;;;;;8.90;7.75;;;;;;;19.66;100.00;100168.59;5053686;28;20044;-68
2021/09/15 08:52:04;;;;;;;8.07;7.10;;;;;;;19.64;100.00;100164.41;5053641;28;20101;-68
2021/09/15 08:54:48;;;;;;;;;;;;;;;19.67;100.00;100164.84;5053997;28;20051;-65
2021/09/15 08:57:33;;;;;;;10.63;8.00;;;;;;;19.70;100.00;100156.31;5039995;28;19924;-68
2021/09/15 09:00:17;;;;;;;11.30;9.23;;;;;;;19.82;100.00;100164.66;5039614;28;20106;-68
2021/09/15 09:03:00;;;;;;;11.25;8.82;;;;;;;19.93;100.00;100164.03;5053596;28;20064;-68
2021/09/15 09:05:44;;;;;;;11.43;9.20;;;;;;;19.99;100.00;100174.06;5053597;28;20509;-68
2021/09/15 09:08:28;;;;;;;12.40;8.00;;;;;;;19.97;100.00;100173.41;5054589;28;20598;-68
2021/09/15 09:11:14;;;;;;;10.73;8.45;;;;;;;19.97;100.00;100165.28;5053241;28;20044;-68
2021/09/15 09:13:59;;;;;;;9.23;7.20;;;;;;;20.06;100.00;100172.19;5053215;28;20110;-68
2021/09/15 09:16:48;;;;;;;13.15;8.35;;;;;;;20.14;100.00;100169.28;5054055;28;20051;-67
2021/09/15 09:19:32;;;;;;;9.23;7.57;;;;;;;20.13;100.00;100175.75;5053528;28;20056;-67
2021/09/15 09:22:16;;;;;;;9.95;7.75;;;;;;;20.33;100.00;100171.16;5053392;28;20052;-68
2021/09/15 09:25:00;;;;;;;8.77;7.65;;;;;;;20.29;100.00;100168.03;5054171;28;20059;-68
2021/09/15 09:27:44;;;;;;;12.13;7.38;;;;;;;20.37;100.00;100169.69;5054197;28;20052;-68
2021/09/15 09:30:33;;;;;;;11.02;7.53;;;;;;;20.42;100.00;100173.44;5053122;28;20406;-68
2021/09/15 09:33:17;;;;;;;14.90;9.50;;;;;;;20.56;100.00;100164.28;5052879;28;20048;-68
2021/09/15 09:36:06;;;;;;;11.52;6.07;;;;;;;20.65;100.00;100170.31;5052721;28;20094;-68
2021/09/15 09:38:50;;;;;;;8.43;7.28;;;;;;;20.59;100.00;100163.84;5053030;28;20055;-68
2021/09/15 09:41:34;;;;;;;11.15;7.50;;;;;;;20.61;100.00;100160.94;5054001;28;20052;-68
2021/09/15 09:44:27;;;;;;;8.60;6.75;;;;;;;20.85;100.00;100166.56;5053571;28;20092;-68
2021/09/15 09:47:29;;;;;;;15.52;6.18;;;;;;;21.04;100.00;100170.25;5052619;28;20518;-68
2021/09/15 09:50:17;;;;;;;9.95;6.65;;;;;;;20.94;100.00;100162.53;5038648;28;20052;-68
2021/09/15 09:53:02;;;;;;;9.43;6.50;;;;;;;21.04;100.00;100159.41;5053004;28;20090;-68
2021/09/15 09:55:48;;;;;;;8.00;5.53;;;;;;;21.13;100.00;100160.84;5052021;28;20198;-68
2021/09/15 09:58:32;;;;;;;7.38;4.95;;;;;;;20.92;100.00;100151.09;5052638;28;20044;-68
2021/09/15 10:01:19;;;;;;;6.43;5.07;;;;;;;20.89;100.00;100158.81;5038504;28;20425;-68
2021/09/15 10:04:03;;;;;;;7.28;5.10;;;;;;;20.80;100.00;100162.75;5052388;28;20430;-68
2021/09/15 10:06:48;;;;;;;9.52;6.03;;;;;;;20.81;100.00;100156.31;5052433;28;20047;-68
2021/09/15 10:09:31;;;;;;;;;;;;;;;21.12;100.00;100151.03;5052955;28;20052;-68
2021/09/15 10:12:16;;;;;;;7.00;4.88;;;;;;;21.20;100.00;100155.16;5052264;28;19919;-68
2021/09/15 10:15:00;;;;;;;8.25;5.50;;;;;;;21.18;100.00;100162.66;5052594;28;20083;-69
2021/09/15 10:17:50;;;;;;;8.13;5.68;;;;;;;21.52;100.00;100154.19;5052387;28;20541;-68
2021/09/15 10:20:37;;;;;;;7.78;4.97;;;;;;;21.59;100.00;100149.53;5053095;28;20076;-68
2021/09/15 10:23:48;;;;;;;6.95;5.45;;;;;;;21.73;100.00;100150.31;5052278;28;20541;-69
2021/09/15 10:26:35;;;;;;;11.52;4.70;;;;;;;21.76;100.00;100153.44;5037908;28;20048;-68
2021/09/15 10:29:29;;;;;;;7.28;5.43;;;;;;;21.94;100.00;100139.09;5051961;28;20072;-68
2021/09/15 10:32:14;;;;;;;6.65;5.00;;;;;;;21.87;100.00;100147.31;5052469;28;20052;-69
2021/09/15 10:34:58;;;;;;;10.07;4.85;;;;;;;21.74;100.00;100147.41;5051867;28;20087;-69
2021/09/15 10:37:42;;;;;;;7.30;4.90;;;;;;;21.65;100.00;100140.56;5052439;28;20076;-69
2021/09/15 10:40:30;;;;;;;7.32;5.25;;;;;;;21.41;100.00;100152.16;5053191;28;20051;-69
2021/09/15 10:43:43;;;;;;;6.70;5.05;;;;;;;21.26;100.00;100150.78;5053152;28;20098;-69
2021/09/15 10:46:27;;;;;;;8.30;4.97;;;;;;;21.49;100.00;100141.03;5037970;28;20068;-69
2021/09/15 10:49:21;;;;;;;8.70;4.85;;;;;;;21.72;100.00;100141.38;5053097;28;20083;-69
2021/09/15 10:52:08;;;;;;;7.20;4.60;;;;;;;21.80;100.00;100138.34;5053359;28;20114;-69
2021/09/15 10:54:55;;;;;;;7.10;4.53;;;;;;;21.92;100.00;100128.50;5052824;28;20055;-69
2021/09/15 10:57:40;;;;;;;8.10;4.72;;;;;;;22.05;100.00;100130.25;5051970;28;20048;-69
2021/09/15 11:00:26;;;;;;;8.30;4.90;;;;;;;22.21;100.00;100125.09;5053252;28;20524;-69
2021/09/15 11:03:32;;;;;;;11.70;4.10;;;;;;;22.19;100.00;100121.78;5051934;28;20094;-69
2021/09/15 11:06:19;;;;;;;6.10;3.78;;;;;;;22.37;100.00;100134.56;5052833;28;20087;-69
2021/09/15 11:09:03;;;;;;;7.53;4.47;;;;;;;22.42;100.00;100132.06;5056805;28;20060;-68
2021/09/15 11:11:48;;;;;;;6.80;4.18;;;;;;;22.52;100.00;100137.81;5041970;28;20052;-69
2021/09/15 11:14:55;;;;;;;8.27;3.80;;;;;;;22.40;100.00;100124.13;5041541;28;20080;-69
2021/09/15 11:17:39;;;;;;;10.00;4.25;;;;;;;22.69;100.00;100128.84;5056234;28;20587;-68
2021/09/15 11:20:26;;;;;;;5.50;4.15;;;;;;;22.73;100.00;100124.59;5041804;28;20132;-69
2021/09/15 11:23:10;;;;;;;4.95;4.10;;;;;;;22.88;100.00;100126.94;5055431;28;20055;-69
2021/09/15 11:25:54;;;;;;;6.68;4.20;;;;;;;22.60;100.00;100130.19;5055415;28;20087;-69
2021/09/15 11:28:44;;;;;;;4.72;4.00;;;;;;;22.58;100.00;100126.88;5056318;28;20055;-69
2021/09/15 11:31:32;;;;;;;7.80;3.92;;;;;;;22.55;100.00;100119.19;5055422;28;20044;-69
2021/09/15 11:34:16;;;;;;;10.38;4.00;;;;;;;22.48;100.00;100120.28;5056118;28;20052;-69
2021/09/15 11:37:00;;;;;;;9.57;4.47;;;;;;;22.56;100.00;100128.13;5055277;28;20068;-69
2021/09/15 11:39:51;;;;;;;5.90;3.67;;;;;;;22.56;100.00;100117.28;5055005;28;20542;-69
2021/09/15 11:42:36;;;;;;;4.78;4.22;;;;;;;22.46;100.00;100116.97;5055149;28;20094;-70
2021/09/15 11:45:22;;;;;;;6.25;4.35;;;;;;;22.43;100.00;100107.34;5055030;28;20136;-70
2021/09/15 11:48:06;;;;;;;6.10;4.40;;;;;;;22.56;100.00;100099.09;5056030;28;20048;-69
2021/09/15 11:50:50;;;;;;;;;;;;;;;22.53;100.00;100096.81;5056214;28;20493;-69
2021/09/15 11:53:34;;;;;;;5.83;4.17;;;;;;;22.74;100.00;100098.28;5040730;28;19965;-68
2021/09/15 11:56:28;;;;;;;8.80;4.00;;;;;;;22.87;100.00;100096.25;5055624;28;20098;-70
2021/09/15 11:59:13;;;;;;;5.80;4.35;;;;;;;23.07;100.00;100098.69;5041513;28;20124;-70
2021/09/15 12:01:57;;;;;;;7.13;4.93;;;;;;;23.14;100.00;100097.59;5040759;28;20061;-69
2021/09/15 12:04:44;;;;;;;7.60;4.63;;;;;;;22.97;100.00;100099.25;5055745;28;20509;-70
2021/09/15 12:07:29;;;;;;;6.47;4.50;;;;;;;22.97;100.00;100093.81;5026941;28;20048;-70
2021/09/15 12:10:13;;;;;;;8.70;4.32;;;;;;;23.14;100.00;100089.41;5040754;28;20051;-69
2021/09/15 12:12:58;;;;;;;;;;;;;;;23.04;100.00;100086.38;5041080;28;20052;-69
2021/09/15 12:15:45;;;;;;;5.32;3.95;;;;;;;23.12;100.00;100077.91;5040296;28;19920;-70
2021/09/15 12:18:43;;;;;;;7.50;4.50;;;;;;;23.31;100.00;100073.31;5039774;28;20040;-70
2021/09/15 12:21:29;;;;;;;6.20;4.05;;;;;;;23.52;100.00;100075.53;5040362;28;20410;-69
2021/09/15 12:24:14;;;;;;;4.07;3.67;;;;;;;23.47;100.00;100073.50;5040217;28;20549;-68
2021/09/15 12:27:12;;;;;;;9.77;4.28;;;;;;;23.51;100.00;100069.25;5055212;28;20055;-69
2021/09/15 12:30:10;;;;;;;4.65;4.22;;;;;;;23.59;100.00;100077.06;5040362;28;20082;-69
2021/09/15 12:32:58;;;;;;;7.15;4.15;;;;;;;23.64;99.26;100069.03;5055005;28;20478;-69
2021/09/15 12:35:45;;;;;;;6.35;4.32;;;;;;;23.58;95.18;100064.53;5040053;28;20102;-69